首页
METAR-TAF:

METAR-TAF

机场 :

奧爾斯克, 俄罗斯

纬度: 51-04-18N, 经度: 058-35-48E, 海拔: 277米

当前天气观测

该预报发布于46分钟前的12:00 UTC
风速12节,风向西转西北
温度 25°C
湿度 50%
气压 1005 hPa
能见度10公里或以上
多云层高于4300英尺

METAR: UWOR 231200Z 29006MPS 9999 BKN043 25/14 Q1005 R25/CLRD65 NOSIG RMK QFE731/0974

时间: 17:46 (12:46 UTC)

预报

该预报发布于2小时和5分钟前的10:41 UTC
预报有效从23日的 12点(UTC)到 23日的 21点(UTC)
风速14节,风向西北,有时为23节阵风
能见度10公里或以上
多云层高于2000英尺
短暂存在
从 23日的 12点(UTC)到 23日的 15点(UTC)
风速17节,风向北转西北,有时为27节阵风
多云层高于1600英尺, 积雨云.
小阵雨
短暂存在
从 23日的 15点(UTC)到 23日的 21点(UTC)
风速6节,风向,有时为16节阵风

TAF: UWOR 231041Z 2312/2321 31007G12MPS 9999 BKN020 TX24/2312Z TN16/2321Z TEMPO 2312/2315 33009G14MPS -SHRA BKN016CB TEMPO 2315/2321 36003G08MPS

超过4000个机场的气象观测和天气预报(METAR&TAF报告)。

可查询的气象台以黄色和红色小点在地图上表示。

将鼠标移到小点上方,可查看气象台名称。

然后点击查看天气观测和预报。

如需切换地图:点击带黑十字的绿色按钮放大地图;点击带横线的绿色按钮缩小地图;或者点击绿色箭头查看邻近地区的地图。


METAR-TAF: